Latest Coastal Weather Observations for Devonport Airport

IDV60701

Issued at 1:01 am EST Saturday 7 May 2016 (issued every 10 minutes, with the page automatically refreshed every 10 minutes)

About coastal observations | Map of coastal stations | Coastal observations for VIC | Marine services | Other Formats
Station Details ID: 091126 Name: DEVONPORT AIRPORT Lat: -41.17 Lon: 146.43 Height: 8.0 m
Data from the previous 72 hours. | See also: Recent months at Devonport Airport
Date/Time
EST
Temp

°C
Wind Pressure Rain
since 9am
mm
Weather Cloud Vis
km
Sea
Height
m
Swell
Dir
 
Speed
knots
Gust
knots
hPa Trend Height
m
Period
s
Dir
07/01:00am 9.1 S 4 5 1016.9 - 0.0 - Partly cloudy 10 - - - -
07/12:30am 8.6 SSE 5 7 1017.0 - 0.0 - Partly cloudy 10 - - - -
07/12:00am 8.8 S 6 7 1016.9 - 0.0 - - 10 - - - -
 
Date/Time
EST
Temp

°C
Wind Pressure Rain
since 9am
mm
Weather Cloud Vis
km
Sea
Height
m
Swell
Dir
 
Speed
knots
Gust
knots
hPa Trend Height
m
Period
s
Dir
06/11:30pm 7.9 S 6 6 1016.9 - 0.0 - - 10 - - - -
06/11:00pm 8.3 SSW 3 4 1016.9 - 0.0 - - 10 - - - -
06/10:30pm 8.2 SSW 5 5 1016.9 - 0.0 - - 10 - - - -
06/10:00pm 9.1 CALM 0 0 1016.9 - 0.0 - - 10 - - - -
06/09:30pm 9.4 SW 2 4 1016.8 - 0.0 - - 10 - - - -
06/09:00pm 10.7 SW 4 5 1016.5 - 0.0 - - 10 - - - -
06/08:30pm 11.9 WSW 5 6 1016.3 - 0.0 - - 10 - - - -
06/08:00pm 11.7 W 6 7 1016.0 - 0.0 - - 10 - - - -
06/07:30pm 12.3 W 9 11 1015.8 - 0.0 - - 10 - - - -
06/07:00pm 11.9 W 6 8 1015.4 - 0.0 - - 10 - - - -
06/06:30pm 11.7 W 8 9 1015.1 - 0.0 - - 10 - - - -
06/06:00pm 12.2 W 9 11 1014.3 - 0.0 - - 10 - - - -
06/05:30pm 13.6 W 11 13 1013.8 - 0.0 - - 10 - - - -
06/05:00pm 15.2 WNW 16 20 1013.3 - 0.0 - - 10 - - - -
06/04:30pm 16.0 WNW 18 23 1013.1 - 0.0 - Partly cloudy 10 - - - -
06/04:00pm 16.5 NW 14 19 1012.8 - 0.0 - Partly cloudy 10 - - - -
06/03:30pm 16.2 NW 17 22 1012.8 - 0.0 - Cloudy 10 - - - -
06/03:00pm 16.2 NW 18 23 1012.5 - 0.0 - Cloudy 10 - - - -
06/02:30pm 16.9 NW 17 22 1012.1 - 0.0 - Partly cloudy 10 - - - -
06/02:00pm 16.8 NW 16 21 1012.1 - 0.0 - - 10 - - - -
06/01:30pm 16.4 NW 16 20 1012.4 - 0.0 - - 10 - - - -
06/01:00pm 16.4 NW 15 19 1012.5 - 0.0 - - 10 - - - -
06/12:30pm 16.1 NW 14 17 1012.7 - 0.0 - - 10 - - - -
06/12:00pm 15.9 NW 13 17 1013.1 - 0.0 - Mostly clear 10 - - - -
06/11:30am 15.7 NW 12 15 1013.3 - 0.0 - Partly cloudy 10 - - - -
06/11:00am 15.4 NW 13 16 1013.3 - 0.0 - Cloudy 10 - - - -
06/10:30am 14.9 NW 13 16 1013.2 - 0.0 - Cloudy 10 - - - -
06/10:00am 14.9 NW 12 16 1013.0 - 0.0 - Partly cloudy 10 - - - -
06/09:30am 14.4 WNW 11 15 1012.9 - 0.0 - Partly cloudy 10 - - - -
06/09:00am 15.0 WNW 13 16 1012.7 - 5.6 - Cloudy 10 - - - -
06/08:30am 14.9 WNW 12 16 1012.5 - 5.6 - Partly cloudy 10 - - - -
06/08:00am 14.7 WNW 7 9 1011.7 - 5.6 - Partly cloudy 10 - - - -
06/07:30am 14.5 W 11 14 1011.1 - 5.6 - Partly cloudy 10 - - - -
06/07:00am 15.0 WNW 12 15 1010.7 - 5.6 - Partly cloudy 10 - - - -
06/06:30am 15.3 WNW 15 19 1010.1 - 5.6 - Partly cloudy 10 - - - -
06/06:14am 15.4 NW 15 19 1009.7 - 5.6 - Partly cloudy 10 - - - -
06/06:00am 15.4 WNW 17 21 1009.4 - 5.6 Showers Cloudy 5 - - - -
06/05:35am 16.0 WNW 17 21 1009.0 - 2.8 - Partly cloudy 6 - - - -
06/05:30am 16.2 WNW 18 25 1009.0 - 2.2 - Partly cloudy 8 - - - -
06/05:00am 17.0 NW 23 33 1008.5 - 2.0 - Partly cloudy 10 - - - -
06/04:57am 16.9 NW 21 31 1008.5 - 2.0 - Partly cloudy 10 - - - -
06/04:30am 16.6 NW 20 26 1008.3 - 2.0 - Partly cloudy 9 - - - -
06/04:21am 16.4 NW 21 27 1008.0 - 2.0 - Partly cloudy 10 - - - -
06/04:00am 16.5 NW 20 25 1008.0 - 1.4 - Partly cloudy 6 - - - -
06/03:58am 16.5 NW 19 24 1008.2 - 1.4 - Partly cloudy 6 - - - -
06/03:30am 16.6 WNW 17 21 1008.2 - 0.8 - Partly cloudy 8 - - - -
06/03:20am 16.6 WNW 16 22 1008.1 - 0.8 - Partly cloudy 9 - - - -
06/03:04am 16.8 NW 21 28 1008.2 - 0.8 - Partly cloudy 6 - - - -
06/03:00am 17.0 NW 22 29 1008.1 - 0.4 Showers Cloudy 9 - - - -
06/02:30am 17.7 NW 24 34 1007.7 - 0.2 - Partly cloudy 10 - - - -
06/02:28am 17.7 NNW 24 34 1007.7 - 0.2 - Partly cloudy 10 - - - -
06/02:00am 17.8 NNW 25 31 1007.4 - 0.2 - Partly cloudy 10 - - - -
06/01:30am 17.7 NNW 27 35 1007.5 - 0.2 - Cloudy 10 - - - -
06/01:00am 17.8 NNW 24 31 1007.4 - 0.2 - Cloudy 10 - - - -
06/12:30am 17.8 NNW 25 32 1007.4 - 0.2 - Cloudy 10 - - - -
06/12:00am 17.8 NNW 26 32 1007.4 - 0.2 - Cloudy 10 - - - -
 
Date/Time
EST
Temp

°C
Wind Pressure Rain
since 9am
mm
Weather Cloud Vis
km
Sea
Height
m
Swell
Dir
 
Speed
knots
Gust
knots
hPa Trend Height
m
Period
s
Dir
05/11:30pm 17.4 NNW 25 30 1007.8 - 0.2 - Partly cloudy 10 - - - -
05/11:00pm 17.3 NNW 23 28 1008.2 - 0.2 - Partly cloudy 10 - - - -
05/10:30pm 17.5 NNW 23 29 1008.5 - 0.2 - Partly cloudy 10 - - - -
05/10:19pm 17.6 NNW 23 33 1008.3 - 0.2 - Partly cloudy 10 - - - -
05/10:00pm 17.3 NNW 21 26 1008.8 - 0.2 - Partly cloudy 10 - - - -
05/09:30pm 17.2 N 21 26 1008.9 - 0.2 - Partly cloudy 10 - - - -
05/09:00pm 17.2 N 22 28 1009.0 - 0.2 - Cloudy 10 - - - -
05/08:30pm 17.2 N 23 31 1009.1 - 0.2 - Partly cloudy 10 - - - -
05/08:00pm 17.1 NNW 21 27 1009.2 - 0.2 - Partly cloudy 10 - - - -
05/07:30pm 17.0 N 21 29 1009.5 - 0.2 - Partly cloudy 10 - - - -
05/07:00pm 17.2 NNW 21 27 1009.5 - 0.2 - Partly cloudy 10 - - - -
05/06:30pm 17.1 NNW 21 27 1009.3 - 0.2 - Partly cloudy 10 - - - -
05/06:00pm 17.1 NNW 23 29 1009.1 - 0.2 - Cloudy 10 - - - -
05/05:30pm 17.0 NNW 21 27 1009.1 - 0.2 - Partly cloudy 10 - - - -
05/05:00pm 17.0 NW 23 31 1009.2 - 0.2 - Partly cloudy 10 - - - -
05/04:30pm 16.8 NNW 24 36 1009.2 - 0.2 - Partly cloudy 10 - - - -
05/04:28pm 16.8 NNW 24 36 1009.0 - 0.2 - Partly cloudy 10 - - - -
05/04:00pm 17.0 NNW 24 30 1009.1 - 0.2 - Cloudy 10 - - - -
05/03:30pm 17.1 NNW 23 29 1009.5 - 0.2 - Partly cloudy 10 - - - -
05/03:00pm 17.1 NNW 24 31 1009.5 - 0.2 - Cloudy 10 - - - -
05/02:30pm 17.1 NNW 25 34 1009.5 - 0.2 - Partly cloudy 10 - - - -
05/02:00pm 16.9 NNW 24 31 1009.6 - 0.2 - Partly cloudy 10 - - - -
05/01:33pm 16.9 NNW 23 33 1009.8 - 0.2 - Cloudy 10 - - - -
05/01:30pm 17.1 NNW 24 33 1009.9 - 0.2 - Cloudy 10 - - - -
05/01:00pm 16.8 NNW 23 29 1010.1 - 0.2 - Cloudy 10 - - - -
05/12:30pm 16.8 NNW 23 29 1010.5 - 0.2 - Cloudy 10 - - - -
05/12:00pm 16.7 NW 24 32 1010.8 - 0.2 - Cloudy 10 - - - -
05/11:30am 16.5 NW 26 31 1011.3 - 0.2 - Partly cloudy 10 - - - -
05/11:00am 16.3 NW 21 29 1011.7 - 0.2 - Partly cloudy 10 - - - -
05/10:30am 16.1 NW 24 31 1011.8 - 0.2 - Partly cloudy 10 - - - -
05/10:13am 16.3 NW 24 34 1011.7 - 0.2 - Partly cloudy 10 - - - -
05/10:00am 16.1 NW 21 29 1011.9 - 0.2 - Partly cloudy 10 - - - -
05/09:43am 15.4 NW 24 31 1012.1 - 0.2 - Partly cloudy 10 - - - -
05/09:33am 15.1 NW 23 31 1012.1 - 0.2 - Partly cloudy 8 - - - -
05/09:30am 15.6 NW 23 30 1012.2 - 0.2 - Partly cloudy 10 - - - -
05/09:29am 15.6 NW 23 30 1012.2 - 0.2 - Partly cloudy 10 - - - -
05/09:26am 15.5 NW 24 30 1012.1 - 0.2 - Partly cloudy 10 - - - -
05/09:16am 15.2 NW 25 32 1012.2 - 0.2 - Partly cloudy 4 - - - -
05/09:10am 14.9 NW 24 31 1012.1 - 0.0 - Partly cloudy 6 - - - -
05/09:00am 15.5 NW 21 27 1012.2 - 4.8 Rain Mostly cloudy 10 - - - -
05/08:56am 15.4 NW 22 28 1012.2 - 4.8 - Partly cloudy 10 - - - -
05/08:43am 14.8 NW 25 32 1012.2 - 4.8 - Partly cloudy 5 - - - -
05/08:30am 14.5 NW 26 31 1012.1 - 4.6 - Partly cloudy 6 - - - -
05/08:24am 15.0 NW 24 30 1012.1 - 4.4 - Partly cloudy 6 - - - -
05/08:10am 15.0 NW 24 31 1012.0 - 4.4 - Partly cloudy 10 - - - -
05/08:06am 15.0 NW 25 31 1012.1 - 4.4 - Partly cloudy 10 - - - -
05/08:00am 14.5 NW 25 32 1012.0 - 4.4 - Partly cloudy 6 - - - -
05/07:43am 14.9 NW 26 34 1011.9 - 4.0 - Partly cloudy 6 - - - -
05/07:42am 14.8 NW 26 34 1011.8 - 4.0 - Partly cloudy 7 - - - -
05/07:30am 15.0 NW 26 37 1011.4 - 4.0 - Partly cloudy 5 - - - -
05/07:19am 14.9 NW 23 33 1011.5 - 4.0 - Partly cloudy 6 - - - -
05/07:17am 14.8 NW 23 33 1011.4 - 4.0 - Partly cloudy 6 - - - -
05/07:00am 14.9 NW 25 32 1011.4 - 3.8 - Partly cloudy 5 - - - -
05/06:57am 15.0 NW 24 32 1011.4 - 3.4 - Partly cloudy 6 - - - -
05/06:30am 15.2 NW 24 30 1011.2 - 3.2 - Partly cloudy 10 - - - -
05/06:01am 15.1 NW 22 33 1011.0 - 3.2 - Partly cloudy 8 - - - -
05/06:00am 15.3 NW 21 30 1011.0 - 3.2 Showers Cloudy 8 - - - -
05/05:55am 14.8 NW 24 29 1011.1 - 3.2 - Partly cloudy 8 - - - -
05/05:45am 14.7 NW 26 35 1011.0 - 3.2 - Partly cloudy 6 - - - -
05/05:39am 15.3 NW 25 35 1010.8 - 3.0 - Partly cloudy 10 - - - -
05/05:30am 15.6 NW 24 30 1010.8 - 3.0 - Partly cloudy 10 - - - -
05/05:00am 15.7 NW 25 33 1010.7 - 3.0 - Partly cloudy 10 - - - -
05/04:34am 15.6 NW 27 37 1010.6 - 3.0 - Partly cloudy 10 - - - -
05/04:30am 15.6 NW 28 37 1010.4 - 3.0 - Partly cloudy 10 - - - -
05/04:16am 15.4 NW 27 37 1010.2 - 3.0 - Partly cloudy 9 - - - -
05/04:00am 15.5 NW 25 33 1010.6 - 3.0 - Partly cloudy 10 - - - -
05/03:30am 15.7 NW 25 32 1010.6 - 3.0 - Partly cloudy 10 - - - -
05/03:00am 15.8 NW 27 34 1010.6 - 3.0 - Cloudy 10 - - - -
05/02:30am 15.7 NW 26 33 1010.6 - 3.0 - Cloudy 10 - - - -
05/02:21am 15.5 NW 25 35 1010.8 - 3.0 - Partly cloudy 10 - - - -
05/02:00am 15.6 NW 26 35 1010.5 - 3.0 - Partly cloudy 10 - - - -
05/01:46am 15.5 NW 26 36 1010.6 - 3.0 - Partly cloudy 10 - - - -
05/01:30am 15.4 NW 27 34 1010.5 - 3.0 - Partly cloudy 10 - - - -
05/01:13am 14.9 WNW 19 33 1010.6 - 3.0 - Partly cloudy 10 - - - -
05/01:00am 14.2 WNW 19 22 1011.0 - 2.6 - Partly cloudy 9 - - - -
05/12:30am 13.8 W 18 26 1011.3 - 2.6 - Partly cloudy 9 - - - -
05/12:05am 14.1 WNW 22 27 1011.3 - 2.2 - Partly cloudy 10 - - - -
05/12:00am 13.9 WNW 23 28 1011.4 - 2.2 Showers Cloudy 8 - - - -
 
Date/Time
EST
Temp

°C
Wind Pressure Rain
since 9am
mm
Weather Cloud Vis
km
Sea
Height
m
Swell
Dir
 
Speed
knots
Gust
knots
hPa Trend Height
m
Period
s
Dir
04/11:38pm 13.4 NW 27 37 1011.4 - 1.8 - Partly cloudy 6 - - - -
04/11:34pm 14.7 NW 27 37 1011.2 - 1.2 - Partly cloudy 10 - - - -
04/11:30pm 15.2 NW 26 34 1011.1 - 1.2 - Partly cloudy 10 - - - -
04/11:00pm 15.3 NW 24 31 1011.1 - 1.2 - Partly cloudy 10 - - - -
04/10:43pm 14.6 WNW 20 31 1011.4 - 1.2 - Partly cloudy 10 - - - -
04/10:41pm 14.5 WNW 19 25 1011.5 - 1.2 - Partly cloudy 10 - - - -
04/10:30pm 13.7 WNW 21 26 1011.6 - 1.2 - Partly cloudy 6 - - - -
04/10:12pm 13.6 NW 29 39 1011.7 - 1.0 - Partly cloudy 6 - - - -
04/10:06pm 14.3 NW 26 36 1011.2 - 1.0 - Partly cloudy 7 - - - -
04/10:00pm 14.4 NW 24 33 1011.5 - 0.8 - Partly cloudy 9 - - - -
04/09:52pm 14.4 NW 20 33 1011.6 - 0.8 - Partly cloudy 10 - - - -
04/09:47pm 14.1 WNW 20 24 1011.6 - 0.6 - Partly cloudy 10 - - - -
04/09:33pm 13.3 NW 26 36 1011.7 - 0.6 - Partly cloudy 5 - - - -
04/09:30pm 13.2 NW 29 37 1011.7 - 0.6 - Partly cloudy 6 - - - -
04/09:19pm 14.5 NW 23 33 1011.2 - 0.4 - Partly cloudy 9 - - - -
04/09:00pm 14.9 NW 24 32 1011.4 - 0.4 - Cloudy 10 - - - -
04/08:45pm 14.9 NW 24 34 1011.4 - 0.4 - Partly cloudy 10 - - - -
04/08:30pm 14.5 NW 22 28 1011.4 - 0.4 - Partly cloudy 10 - - - -
04/08:00pm 14.8 NW 26 32 1011.3 - 0.4 - Partly cloudy 10 - - - -
04/07:30pm 14.5 NW 26 33 1011.3 - 0.4 - Partly cloudy 10 - - - -
04/07:00pm 14.2 NW 25 31 1011.0 - 0.4 - Partly cloudy 10 - - - -
04/06:30pm 14.1 NW 23 29 1010.7 - 0.4 - Partly cloudy 10 - - - -
04/06:00pm 13.9 NW 21 30 1010.5 - 0.4 - Cloudy 10 - - - -
04/05:30pm 13.3 WNW 19 24 1010.3 - 0.4 - Partly cloudy 10 - - - -
04/05:16pm 13.4 WNW 15 29 1010.2 - 0.4 - Partly cloudy 10 - - - -
04/05:00pm 12.3 W 13 17 1010.4 - 0.4 - Partly cloudy 10 - - - -
04/04:45pm 12.3 W 18 28 1010.5 - 0.4 - Partly cloudy 8 - - - -
04/04:30pm 13.6 WNW 18 23 1010.1 - 0.0 - Partly cloudy 10 - - - -
04/04:12pm 13.3 WNW 22 32 1010.2 - 0.0 - Partly cloudy 10 - - - -
04/04:00pm 14.0 WNW 21 28 1010.1 - 0.0 - Partly cloudy 10 - - - -
04/03:45pm 14.1 WNW 20 30 1009.9 - 0.0 - Partly cloudy 10 - - - -
04/03:30pm 13.6 WNW 15 20 1010.1 - 0.0 - Partly cloudy 10 - - - -
04/03:00pm 13.4 WNW 21 30 1009.5 - 0.0 Drizzle Partly cloudy 10 - - - -
04/02:30pm 14.5 WNW 23 29 1009.8 - 0.0 - Partly cloudy 10 - - - -
04/02:00pm 14.4 WNW 21 27 1009.6 - 0.0 - - 10 - - - -
04/01:30pm 14.0 WNW 19 23 1009.7 - 0.0 - Partly cloudy 10 - - - -
04/01:00pm 13.3 WNW 18 24 1009.9 - 0.0 - Partly cloudy 10 - - - -
04/12:30pm 14.1 WNW 18 23 1009.8 - 0.0 - - 10 - - - -
04/12:00pm 13.9 WNW 18 23 1010.1 - 0.0 - - 10 - - - -
04/11:30am 13.2 WNW 20 25 1010.0 - 0.0 - Partly cloudy 10 - - - -
04/11:00am 13.1 WNW 18 26 1010.3 - 0.0 - Partly cloudy 10 - - - -
04/10:30am 12.7 WNW 15 19 1010.2 - 0.0 - - 10 - - - -
04/10:00am 12.1 WNW 14 17 1010.1 - 0.0 - Partly cloudy 10 - - - -
04/09:30am 11.0 WNW 13 18 1010.0 - 0.0 - - 10 - - - -
04/09:00am 11.0 WNW 14 18 1009.8 - 6.8 - - 10 - - - -
04/08:30am 10.4 WNW 9 13 1009.5 - 6.8 - - 10 - - - -
04/08:00am 9.2 WNW 10 13 1009.4 - 6.8 - - 10 - - - -
04/07:30am 7.9 W 9 12 1008.8 - 6.8 - - 10 - - - -
04/07:00am 7.9 WNW 10 13 1008.1 - 6.8 - - 10 - - - -
04/06:30am 6.4 W 7 9 1007.6 - 6.8 - - 10 - - - -
04/06:00am 7.0 WSW 5 6 1007.3 - 6.8 - Mostly cloudy 10 - - - -
04/05:30am 6.9 W 6 7 1006.6 - 6.8 - - 10 - - - -
04/05:00am 7.3 W 8 10 1005.7 - 6.8 - - 10 - - - -
04/04:30am 6.7 WSW 7 11 1005.3 - 6.8 - - 10 - - - -
04/04:00am 7.5 W 11 13 1004.8 - 6.8 - - 10 - - - -
04/03:30am 8.3 W 13 16 1004.2 - 6.8 - - 10 - - - -
04/03:00am 7.9 W 10 13 1003.7 - 6.8 - - 10 - - - -
04/02:30am 8.1 W 9 13 1003.1 - 6.8 - - 10 - - - -
04/02:00am 8.5 W 14 20 1002.7 - 6.8 - - 10 - - - -
04/01:30am 9.5 WNW 19 24 1001.9 - 6.8 - - 10 - - - -

Other Formats:

Comma delimited format used in spreadsheet applications
http://www.bom.gov.au/fwo/IDV60701/IDV60701.95960.axf

JavaScript Object Notation format (JSON) in row-major order
http://www.bom.gov.au/fwo/IDV60701/IDV60701.95960.json